Time;durP1;ratioP1;P1;durP2;ratioP2;P2;SDS_P1;SDS_P2;PMS_P1;PMS_P2;Temp;Humidity;BMP_temperature;BMP_pressure;BME280_temperature;BME280_humidity;BME280_pressure;Samples;Min_cycle;Max_cycle;Signal;HPM_P1;HPM_P2
2023/02/10 11:27:43;;;;;;;13.52;8.05;;;10.90;45.90;;;;;;6269625;22;20114;-79
2023/02/10 11:30:25;;;;;;;14.93;7.57;;;11.00;45.60;;;;;;6245912;23;20024;-81
2023/02/10 11:32:51;;;;;;;11.20;6.43;;;11.10;44.30;;;;;;6245019;23;20008;-80
2023/02/10 11:35:17;;;;;;;11.27;6.85;;;11.20;43.40;;;;;;6218864;23;20460;-81
2023/02/10 11:37:46;;;;;;;12.55;6.88;;;11.20;42.90;;;;;;6244847;23;20018;-81
2023/02/10 11:40:21;;;;;;;10.73;6.70;;;11.30;43.00;;;;;;6243856;23;20046;-80
2023/02/10 11:42:49;;;;;;;13.98;6.95;;;11.40;42.90;;;;;;6219539;23;20008;-83
2023/02/10 11:45:18;;;;;;;12.23;6.72;;;11.50;42.20;;;;;;6228039;23;20434;-87
2023/02/10 11:47:45;;;;;;;9.88;6.22;;;11.50;41.00;;;;;;6256273;23;20497;-85
2023/02/10 11:50:22;;;;;;;11.30;6.43;;;11.50;40.10;;;;;;6247956;23;20024;-82
2023/02/10 11:52:48;;;;;;;11.85;6.22;;;11.60;40.20;;;;;;6244526;23;20031;-73
2023/02/10 11:55:15;;;;;;;9.57;6.10;;;11.70;40.10;;;;;;6244292;23;20001;-75
2023/02/10 12:01:14;;;;;;;12.23;6.45;;;11.80;39.90;;;;;;6182839;23;20026;-79
2023/02/10 12:03:43;;;;;;;9.20;6.10;;;11.90;39.60;;;;;;6068528;23;20129;-73
2023/02/10 12:06:08;;;;;;;9.60;5.82;;;11.90;42.50;;;;;;6222242;23;20008;-73
2023/02/10 12:08:51;;;;;;;10.65;6.07;;;12.00;40.40;;;;;;6244110;23;20434;-76
2023/02/10 12:11:48;;;;;;;11.68;6.45;;;12.10;41.50;;;;;;6217272;23;20091;-77
2023/02/10 12:14:32;;;;;;;8.95;5.30;;;12.20;42.00;;;;;;6244145;23;20010;-73
2023/02/10 12:17:13;;;;;;;8.85;5.88;;;12.30;41.80;;;;;;6243843;23;20007;-75
2023/02/10 12:20:06;;;;;;;12.50;5.32;;;12.30;41.30;;;;;;6217525;23;20008;-73
2023/02/10 12:23:00;;;;;;;8.02;5.22;;;12.40;41.50;;;;;;6244134;23;20008;-74
2023/02/10 12:25:45;;;;;;;10.85;5.82;;;12.40;40.30;;;;;;6244460;23;20027;-76
2023/02/10 12:28:23;;;;;;;8.80;5.07;;;12.40;40.20;;;;;;6244328;23;20011;-76
2023/02/10 12:31:07;;;;;;;10.05;5.28;;;12.40;39.30;;;;;;6244067;23;20000;-77
2023/02/10 12:33:39;;;;;;;11.43;5.35;;;12.40;39.20;;;;;;6244645;23;19996;-79
2023/02/10 12:36:28;;;;;;;9.32;5.22;;;12.60;38.50;;;;;;6244515;23;20005;-77
2023/02/10 12:39:08;;;;;;;7.75;4.93;;;12.70;38.60;;;;;;6244236;23;20004;-76
2023/02/10 12:41:49;;;;;;;8.77;5.63;;;12.80;38.20;;;;;;6243549;23;20015;-75
2023/02/10 12:44:46;;;;;;;9.93;5.53;;;12.80;37.80;;;;;;6243820;23;20339;-77
2023/02/10 12:47:31;;;;;;;10.63;5.85;;;12.80;38.10;;;;;;6244506;23;20076;-76
2023/02/10 12:50:34;;;;;;;10.00;5.68;;;12.80;37.10;;;;;;6217325;23;20036;-75
2023/02/10 12:53:10;;;;;;;8.55;4.85;;;12.90;37.80;;;;;;6243023;23;19996;-76
2023/02/10 12:55:42;;;;;;;11.27;5.38;;;12.90;36.50;;;;;;6244025;23;20019;-76
2023/02/10 12:58:20;;;;;;;9.30;5.28;;;12.90;36.60;;;;;;6244081;23;20044;-75
2023/02/10 13:01:01;;;;;;;8.52;4.50;;;12.80;37.00;;;;;;6243966;23;20031;-77
2023/02/10 13:03:32;;;;;;;8.15;4.90;;;12.90;36.40;;;;;;6244215;23;20000;-76
2023/02/10 13:06:27;;;;;;;6.85;4.40;;;12.80;36.40;;;;;;6244104;23;20371;-76
2023/02/10 13:09:15;;;;;;;7.75;4.82;;;12.90;35.70;;;;;;6226595;23;20004;-75
2023/02/10 13:11:48;;;;;;;8.60;5.43;;;12.90;35.70;;;;;;6217508;23;20012;-75
2023/02/10 13:14:24;;;;;;;9.85;5.93;;;13.00;36.70;;;;;;6243955;23;20004;-74
2023/02/10 13:16:59;;;;;;;8.00;5.32;;;13.00;36.90;;;;;;6244230;23;20000;-75
2023/02/10 13:19:48;;;;;;;7.40;5.22;;;13.10;36.70;;;;;;6246034;23;20353;-77
2023/02/10 13:22:20;;;;;;;7.65;5.43;;;13.10;36.40;;;;;;6245410;23;20019;-74
2023/02/10 13:25:01;;;;;;;10.32;6.43;;;13.20;36.60;;;;;;6245683;23;20003;-74
2023/02/10 13:27:42;;;;;;;8.77;5.97;;;13.20;36.90;;;;;;6245619;23;20481;-79
2023/02/10 13:30:26;;;;;;;11.02;5.93;;;13.20;36.70;;;;;;6243912;23;20023;-78
2023/02/10 13:33:00;;;;;;;9.57;6.20;;;13.20;37.30;;;;;;6217952;23;20036;-79
2023/02/10 13:35:27;;;;;;;12.32;6.00;;;13.30;36.80;;;;;;6246227;23;20171;-79
2023/02/10 13:37:56;;;;;;;8.60;5.65;;;13.30;36.90;;;;;;6246012;23;19997;-77
2023/02/10 13:40:26;;;;;;;9.80;6.20;;;13.30;36.50;;;;;;6245792;23;20373;-77
2023/02/10 13:43:04;;;;;;;10.70;6.85;;;13.30;36.90;;;;;;6246387;23;20040;-78
2023/02/10 13:45:35;;;;;;;10.15;6.28;;;13.40;36.30;;;;;;6218951;23;20083;-77
2023/02/10 13:48:18;;;;;;;10.63;6.30;;;13.40;36.30;;;;;;6245644;23;20007;-79
2023/02/10 13:50:54;;;;;;;9.75;6.00;;;13.50;36.40;;;;;;6245530;23;20008;-76
2023/02/10 13:53:29;;;;;;;9.77;5.68;;;13.50;36.00;;;;;;6218937;23;20442;-77
2023/02/10 13:56:19;;;;;;;9.30;5.85;;;13.50;36.40;;;;;;6218997;23;20138;-79
2023/02/10 13:58:57;;;;;;;10.77;6.22;;;13.50;36.10;;;;;;6219110;23;20058;-78
2023/02/10 14:02:03;;;;;;;8.90;6.07;;;13.50;36.10;;;;;;6245253;23;20034;-80
2023/02/10 14:04:47;;;;;;;11.30;6.22;;;13.50;35.60;;;;;;6198758;23;20341;-80
2023/02/10 14:07:34;;;;;;;8.20;4.80;;;13.50;35.60;;;;;;6218908;23;20039;-80
2023/02/10 14:10:08;;;;;;;9.25;5.22;;;13.50;35.60;;;;;;6245903;23;20027;-80
2023/02/10 14:12:36;;;;;;;9.40;5.80;;;13.40;35.70;;;;;;6246741;23;20430;-81
2023/02/10 14:15:25;;;;;;;10.68;5.97;;;13.40;35.40;;;;;;6246163;23;20003;-79
2023/02/10 14:18:19;;;;;;;8.38;5.13;;;13.40;35.30;;;;;;6218860;23;20008;-77
2023/02/10 14:20:46;;;;;;;10.95;5.68;;;13.40;35.00;;;;;;6220716;23;20477;-81
2023/02/10 14:23:22;;;;;;;7.95;4.97;;;13.40;34.90;;;;;;6245941;23;19993;-79
2023/02/10 14:25:48;;;;;;;8.45;4.90;;;13.30;34.80;;;;;;6245743;23;20004;-80
2023/02/10 14:28:27;;;;;;;12.00;5.30;;;13.40;34.80;;;;;;6244947;23;20012;-80
2023/02/10 14:31:04;;;;;;;8.38;4.80;;;13.40;34.50;;;;;;6245581;23;20021;-79
2023/02/10 14:33:34;;;;;;;8.02;4.68;;;13.50;35.10;;;;;;6245503;23;20452;-80
2023/02/10 14:36:03;;;;;;;7.50;4.93;;;13.50;34.50;;;;;;6218645;23;20019;-80
2023/02/10 14:38:33;;;;;;;8.00;5.20;;;13.60;34.70;;;;;;6218671;23;20087;-81
2023/02/10 14:41:00;;;;;;;8.30;5.30;;;13.60;34.60;;;;;;6245591;23;20008;-79
2023/02/10 14:43:29;;;;;;;10.95;5.65;;;13.60;34.40;;;;;;6245702;23;20426;-78
2023/02/10 14:45:57;;;;;;;7.60;4.97;;;13.50;34.40;;;;;;6245915;23;20075;-79
2023/02/10 14:48:24;;;;;;;8.30;5.10;;;13.50;34.40;;;;;;6245676;23;20000;-79
2023/02/10 14:51:17;;;;;;;7.72;4.88;;;13.60;34.70;;;;;;6218341;23;20008;-80
2023/02/10 14:53:43;;;;;;;8.13;5.30;;;13.60;34.40;;;;;;6245260;23;20006;-79
2023/02/10 14:56:23;;;;;;;11.48;5.95;;;13.50;34.80;;;;;;6245408;23;20031;-80
2023/02/10 14:58:49;;;;;;;11.75;4.93;;;13.40;34.00;;;;;;6245502;23;20004;-79
2023/02/10 15:01:36;;;;;;;8.52;5.43;;;13.50;34.40;;;;;;6218247;23;20016;-80
2023/02/10 15:04:03;;;;;;;7.25;4.78;;;13.40;33.60;;;;;;6245090;23;20008;-80
2023/02/10 15:06:30;;;;;;;8.88;5.50;;;13.40;34.30;;;;;;6245161;23;20303;-80
2023/02/10 15:09:00;;;;;;;9.68;5.82;;;13.30;34.20;;;;;;6218266;23;20008;-80
2023/02/10 15:14:39;;;;;;;9.90;5.80;;;13.20;34.40;;;;;;6245062;23;20396;-80
2023/02/10 15:17:11;;;;;;;9.55;6.57;;;13.10;34.00;;;;;;6245056;23;20000;-80
2023/02/10 15:19:37;;;;;;;11.80;6.38;;;13.00;34.70;;;;;;6244933;23;20024;-80
2023/02/10 15:22:04;;;;;;;13.23;6.35;;;13.00;35.00;;;;;;6244911;23;20343;-79
2023/02/10 15:24:32;;;;;;;10.55;6.43;;;13.00;35.10;;;;;;6217754;23;20096;-79
2023/02/10 15:27:18;;;;;;;10.55;6.40;;;13.00;35.70;;;;;;6244242;23;20054;-79
2023/02/10 15:29:44;;;;;;;9.07;6.03;;;12.90;35.00;;;;;;6244411;23;20030;-81
2023/02/10 15:32:21;;;;;;;9.55;5.80;;;12.80;35.00;;;;;;6245089;23;19996;-80
2023/02/10 15:34:50;;;;;;;9.93;6.18;;;12.80;35.00;;;;;;6244981;23;20402;-78
2023/02/10 15:37:26;;;;;;;10.23;6.13;;;12.70;35.10;;;;;;6244945;23;20000;-80
2023/02/10 15:40:02;;;;;;;12.43;6.45;;;12.70;35.10;;;;;;6217223;23;20457;-81
2023/02/10 15:42:32;;;;;;;8.88;5.60;;;12.70;35.30;;;;;;6244688;23;20012;-80
2023/02/10 15:45:01;;;;;;;11.05;6.13;;;12.70;35.10;;;;;;6244229;23;20019;-80
2023/02/10 15:47:40;;;;;;;10.07;5.40;;;12.70;35.10;;;;;;6217199;23;20016;-80
2023/02/10 15:50:06;;;;;;;8.75;5.40;;;12.70;34.90;;;;;;6243808;23;19997;-80
2023/02/10 15:52:34;;;;;;;10.15;5.88;;;12.70;35.00;;;;;;6243733;23;20004;-80
2023/02/10 15:55:03;;;;;;;10.55;5.80;;;12.60;34.90;;;;;;6244252;23;20000;-81
2023/02/10 15:57:29;;;;;;;11.52;6.10;;;12.60;35.00;;;;;;6216914;23;20023;-78
2023/02/10 15:59:55;;;;;;;8.65;6.10;;;12.50;34.70;;;;;;6216934;23;20032;-77
2023/02/10 16:02:24;;;;;;;9.60;5.93;;;12.50;34.80;;;;;;6244003;23;20023;-77
2023/02/10 16:04:50;;;;;;;15.13;10.18;;;12.40;34.60;;;;;;6243893;23;19997;-76
2023/02/10 16:07:26;;;;;;;11.63;6.57;;;12.30;34.90;;;;;;6244120;23;20071;-79
2023/02/10 16:09:52;;;;;;;9.55;6.00;;;12.20;34.90;;;;;;6243409;23;19996;-76
2023/02/10 16:12:19;;;;;;;10.45;6.88;;;12.20;34.90;;;;;;6244279;23;20000;-75
2023/02/10 16:14:44;;;;;;;10.40;6.85;;;12.10;35.10;;;;;;6244075;23;20380;-76
2023/02/10 16:17:17;;;;;;;11.93;7.32;;;12.00;35.10;;;;;;6243906;23;20023;-76
2023/02/10 16:19:42;;;;;;;10.48;6.80;;;12.00;35.60;;;;;;6244327;23;20007;-78
2023/02/10 16:22:09;;;;;;;10.68;6.75;;;11.90;35.70;;;;;;6217134;23;20028;-78
2023/02/10 16:24:36;;;;;;;10.18;6.78;;;11.80;35.70;;;;;;6244072;23;20003;-78
2023/02/10 16:27:01;;;;;;;12.15;7.25;;;11.80;36.00;;;;;;6244101;23;20058;-74
2023/02/10 16:29:29;;;;;;;12.88;7.55;;;11.70;36.30;;;;;;6244374;23;20012;-78
2023/02/10 16:31:55;;;;;;;15.25;8.27;;;11.70;36.30;;;;;;6244383;23;20028;-76
2023/02/10 16:34:21;;;;;;;12.50;7.20;;;11.60;36.50;;;;;;6217479;23;20019;-78
2023/02/10 16:36:47;;;;;;;11.55;7.28;;;11.50;36.60;;;;;;6243998;23;20374;-76
2023/02/10 16:39:24;;;;;;;12.63;8.98;;;11.50;36.80;;;;;;6217049;23;20004;-78
2023/02/10 16:41:50;;;;;;;13.90;9.55;;;11.40;37.00;;;;;;6243441;23;20441;-76
2023/02/10 16:44:16;;;;;;;14.95;10.18;;;11.40;37.00;;;;;;6244700;23;20000;-76
2023/02/10 16:46:43;;;;;;;14.65;9.60;;;11.30;37.00;;;;;;6245397;23;20023;-78
2023/02/10 16:49:14;;;;;;;14.43;10.52;;;11.20;36.90;;;;;;6217448;23;20010;-71
2023/02/10 16:51:40;;;;;;;16.02;10.38;;;11.20;37.10;;;;;;6244624;23;20062;-79
2023/02/10 16:54:10;;;;;;;17.98;11.88;;;11.10;37.20;;;;;;6219838;23;20457;-80
2023/02/10 16:56:37;;;;;;;20.42;12.30;;;11.10;37.40;;;;;;6245741;23;20382;-80
2023/02/10 16:59:04;;;;;;;15.25;9.48;;;11.10;37.60;;;;;;6245964;23;19996;-81
2023/02/10 17:01:31;;;;;;;18.77;9.80;;;11.00;37.70;;;;;;6218840;23;20024;-79
2023/02/10 17:03:57;;;;;;;15.52;10.27;;;11.00;37.80;;;;;;6245807;23;20488;-80
2023/02/10 17:06:23;;;;;;;14.27;9.38;;;11.00;37.90;;;;;;6246265;23;20035;-80
2023/02/10 17:08:49;;;;;;;15.40;10.43;;;10.90;37.70;;;;;;6246403;23;20003;-81
2023/02/10 17:11:16;;;;;;;17.20;10.27;;;10.90;37.80;;;;;;6246286;23;20027;-80
2023/02/10 17:13:42;;;;;;;17.90;9.77;;;10.80;37.70;;;;;;6246283;23;20005;-81
2023/02/10 17:16:36;;;;;;;17.98;9.80;;;10.80;38.00;;;;;;6218898;23;20012;-80
2023/02/10 17:19:04;;;;;;;;;;;10.70;37.80;;;;;;6232627;23;20311;-81
2023/02/10 17:21:30;;;;;;;18.48;9.98;;;10.70;37.80;;;;;;6245815;23;19915;-79
2023/02/10 17:23:55;;;;;;;15.40;10.45;;;10.70;38.00;;;;;;6246037;23;20000;-79
2023/02/10 17:26:21;;;;;;;17.05;10.18;;;10.60;37.90;;;;;;6219068;23;20146;-79
2023/02/10 17:28:47;;;;;;;15.82;10.55;;;10.60;38.10;;;;;;6245708;23;20374;-80
2023/02/10 17:31:18;;;;;;;18.33;9.75;;;10.50;38.00;;;;;;6245750;23;20011;-80
2023/02/10 17:33:48;;;;;;;16.95;10.05;;;10.50;37.90;;;;;;6245711;23;20000;-78
2023/02/10 17:36:25;;;;;;;18.00;9.13;;;10.50;37.90;;;;;;6245433;23;20000;-81
2023/02/10 17:38:52;;;;;;;17.13;9.90;;;10.40;37.80;;;;;;6216679;23;20000;-81
2023/02/10 17:41:22;;;;;;;19.38;9.80;;;10.40;37.90;;;;;;6216922;23;20066;-80
2023/02/10 17:43:49;;;;;;;17.02;10.75;;;10.40;38.30;;;;;;6217615;23;20441;-82
2023/02/10 17:46:16;;;;;;;16.52;9.50;;;10.30;37.70;;;;;;6245146;23;20091;-80
2023/02/10 17:48:43;;;;;;;17.75;10.07;;;10.30;38.00;;;;;;6245446;23;20004;-79
2023/02/10 17:51:16;;;;;;;15.85;10.68;;;10.30;37.80;;;;;;6245621;23;20058;-81
2023/02/10 17:53:43;;;;;;;17.60;10.07;;;10.20;38.40;;;;;;6245801;23;20407;-81
2023/02/10 17:56:09;;;;;;;18.27;10.18;;;10.20;37.60;;;;;;6245704;23;20004;-81
2023/02/10 17:58:35;;;;;;;16.08;9.88;;;10.10;37.50;;;;;;6245642;23;20028;-81
2023/02/10 18:01:01;;;;;;;15.73;10.23;;;10.00;37.40;;;;;;6245691;23;20015;-80
2023/02/10 18:03:27;;;;;;;15.95;10.52;;;10.00;37.50;;;;;;6245545;23;20418;-80
2023/02/10 18:05:55;;;;;;;16.27;10.88;;;9.90;38.50;;;;;;6245681;23;20000;-81
2023/02/10 18:08:22;;;;;;;16.02;10.77;;;9.90;38.60;;;;;;6245915;23;20330;-80
2023/02/10 18:10:49;;;;;;;18.20;11.07;;;9.80;38.40;;;;;;6245849;23;20062;-82
2023/02/10 18:13:16;;;;;;;16.52;10.55;;;9.70;38.50;;;;;;6218882;23;20031;-81
2023/02/10 18:15:42;;;;;;;18.50;10.85;;;9.70;38.60;;;;;;6246327;23;20315;-81
2023/02/10 18:18:08;;;;;;;18.60;10.77;;;9.70;38.60;;;;;;6253999;23;20003;-82
2023/02/10 18:20:34;;;;;;;15.10;10.55;;;9.60;38.90;;;;;;6222986;23;20016;-82
2023/02/10 18:22:59;;;;;;;20.55;11.65;;;9.50;38.70;;;;;;6218603;23;20012;-82
2023/02/10 18:25:25;;;;;;;18.05;10.82;;;9.50;38.90;;;;;;6244975;23;20422;-79
2023/02/10 18:27:51;;;;;;;18.00;11.07;;;9.50;38.90;;;;;;6245371;23;20008;-80
2023/02/10 18:30:17;;;;;;;18.15;11.15;;;9.50;39.10;;;;;;6219424;23;20020;-87
2023/02/10 18:32:43;;;;;;;16.85;10.88;;;9.40;39.00;;;;;;6247257;23;20011;-88
2023/02/10 18:35:11;;;;;;;15.48;10.70;;;9.40;38.90;;;;;;6220991;23;20012;-88
2023/02/10 18:37:38;;;;;;;16.42;11.07;;;9.30;38.70;;;;;;6224077;23;20008;-86
2023/02/10 18:40:05;;;;;;;17.38;10.80;;;9.20;38.90;;;;;;6225364;23;20030;-86
2023/02/10 18:42:31;;;;;;;18.27;10.80;;;9.20;38.90;;;;;;6252314;23;20036;-87
2023/02/10 18:44:56;;;;;;;16.58;9.75;;;9.10;38.90;;;;;;6250672;23;20000;-86
2023/02/10 18:47:22;;;;;;;14.25;10.68;;;9.00;39.00;;;;;;6224550;23;20028;-86
2023/02/10 18:49:48;;;;;;;18.90;11.30;;;9.00;39.10;;;;;;6223774;23;20004;-88
2023/02/10 18:52:16;;;;;;;16.33;10.82;;;9.00;40.30;;;;;;6254265;23;20047;-88
2023/02/10 18:54:44;;;;;;;14.38;10.63;;;8.90;39.10;;;;;;6227840;23;20010;-78
2023/02/10 18:57:10;;;;;;;17.23;11.65;;;8.90;38.70;;;;;;6252260;23;20069;-82
2023/02/10 18:59:36;;;;;;;16.25;10.35;;;8.90;39.10;;;;;;6224178;23;20031;-84
2023/02/10 19:02:02;;;;;;;17.35;11.60;;;8.80;39.10;;;;;;6219147;23;20024;-85
2023/02/10 19:04:28;;;;;;;17.52;10.45;;;8.80;39.20;;;;;;6217824;23;20008;-81
2023/02/10 19:06:54;;;;;;;20.13;11.85;;;8.70;39.50;;;;;;6245174;23;20088;-83
2023/02/10 19:09:20;;;;;;;20.67;11.05;;;8.70;39.20;;;;;;6220056;23;20087;-87
2023/02/10 19:11:46;;;;;;;19.02;11.65;;;8.70;39.20;;;;;;6218652;23;20008;-79
2023/02/10 19:14:12;;;;;;;16.50;10.98;;;8.70;39.50;;;;;;6220101;23;20016;-84
2023/02/10 19:16:38;;;;;;;18.30;11.13;;;8.60;39.40;;;;;;6218878;23;20008;-81
2023/02/10 19:19:05;;;;;;;21.75;12.35;;;8.60;39.40;;;;;;6246874;23;19996;-79
2023/02/10 19:21:32;;;;;;;18.90;11.95;;;8.60;40.10;;;;;;6245186;23;20059;-76
2023/02/10 19:23:57;;;;;;;19.33;11.73;;;8.60;40.30;;;;;;6246317;23;20083;-76
2023/02/10 19:26:23;;;;;;;18.63;10.95;;;8.60;40.60;;;;;;6244386;23;20334;-77
2023/02/10 19:28:50;;;;;;;16.75;11.32;;;8.50;40.20;;;;;;6244789;23;20519;-75
2023/02/10 19:31:16;;;;;;;19.40;11.82;;;8.50;40.90;;;;;;6244855;23;20011;-72
2023/02/10 19:33:46;;;;;;;15.88;11.20;;;8.50;41.20;;;;;;6244583;23;20075;-75
2023/02/10 19:36:17;;;;;;;19.52;12.05;;;8.50;41.50;;;;;;6244734;23;20037;-75
2023/02/10 19:38:44;;;;;;;24.17;12.70;;;8.40;40.50;;;;;;6217747;23;20032;-75
2023/02/10 19:41:16;;;;;;;15.60;11.30;;;8.40;41.40;;;;;;6244046;23;20068;-75
2023/02/10 19:43:42;;;;;;;26.45;11.98;;;8.30;42.30;;;;;;6244620;23;20058;-77
2023/02/10 19:46:08;;;;;;;18.65;11.65;;;8.30;41.20;;;;;;6217610;23;20051;-75
2023/02/10 19:48:36;;;;;;;22.98;12.25;;;8.20;41.60;;;;;;6244410;23;20338;-77
2023/02/10 19:51:09;;;;;;;21.15;11.77;;;8.20;41.50;;;;;;6244834;23;20062;-76
2023/02/10 19:53:36;;;;;;;19.63;11.98;;;8.20;42.60;;;;;;6217664;23;20307;-76
2023/02/10 19:56:02;;;;;;;24.95;13.38;;;8.10;42.10;;;;;;6244204;23;20000;-75
2023/02/10 19:58:27;;;;;;;18.52;12.48;;;8.10;40.80;;;;;;6218438;23;20008;-77
2023/02/10 20:01:01;;;;;;;17.25;12.10;;;8.10;41.00;;;;;;6244636;23;20347;-73
2023/02/10 20:03:27;;;;;;;20.70;13.02;;;8.00;40.80;;;;;;6245015;23;20004;-74
2023/02/10 20:05:53;;;;;;;18.13;12.82;;;8.00;40.90;;;;;;6244337;23;20039;-77
2023/02/10 20:08:19;;;;;;;17.25;12.60;;;8.10;41.30;;;;;;6244205;23;20422;-77
2023/02/10 20:10:50;;;;;;;21.17;11.98;;;8.00;41.20;;;;;;6244074;23;20004;-77
2023/02/10 20:13:16;;;;;;;20.95;12.18;;;8.10;41.10;;;;;;6244562;23;20004;-78
2023/02/10 20:15:41;;;;;;;18.77;11.90;;;8.10;41.30;;;;;;6243863;23;20438;-76
2023/02/10 20:18:07;;;;;;;22.23;13.40;;;8.10;41.60;;;;;;6244804;23;20000;-78
2023/02/10 20:20:33;;;;;;;18.95;12.20;;;8.10;41.30;;;;;;6217913;23;20020;-76
2023/02/10 20:22:59;;;;;;;18.60;11.68;;;8.10;41.40;;;;;;6245095;23;20000;-78
2023/02/10 20:25:24;;;;;;;33.58;20.05;;;8.10;41.10;;;;;;6245238;23;19996;-76
2023/02/10 20:27:50;;;;;;;22.02;14.10;;;8.10;41.40;;;;;;6218846;23;20320;-75
2023/02/10 20:30:17;;;;;;;23.02;13.07;;;8.10;41.40;;;;;;6246813;23;20090;-75
2023/02/10 20:32:43;;;;;;;21.73;13.60;;;8.00;41.50;;;;;;6246879;23;20000;-75
2023/02/10 20:35:08;;;;;;;22.05;12.55;;;7.90;41.30;;;;;;6246707;23;20007;-75
2023/02/10 20:37:34;;;;;;;20.40;13.30;;;7.90;41.70;;;;;;6246825;23;20004;-75
2023/02/10 20:40:00;;;;;;;20.20;13.20;;;7.90;41.90;;;;;;6246593;23;20071;-75
2023/02/10 20:42:26;;;;;;;19.58;12.90;;;7.90;42.00;;;;;;6219783;23;20016;-76
2023/02/10 20:44:52;;;;;;;20.73;13.32;;;7.90;42.10;;;;;;6247194;23;20329;-75
2023/02/10 20:47:17;;;;;;;23.88;13.30;;;7.90;42.30;;;;;;6246772;23;20000;-75
2023/02/10 20:49:43;;;;;;;21.05;12.43;;;7.90;42.30;;;;;;6246526;23;20071;-76
2023/02/10 20:52:09;;;;;;;20.73;13.55;;;7.80;42.10;;;;;;6220110;23;20311;-76
2023/02/10 20:54:36;;;;;;;23.30;12.82;;;7.70;42.00;;;;;;6247150;23;19996;-76
2023/02/10 20:57:02;;;;;;;20.63;11.65;;;7.70;41.90;;;;;;6246077;23;20007;-79
2023/02/10 20:59:28;;;;;;;17.10;12.15;;;7.60;42.10;;;;;;6219663;23;20069;-76
2023/02/10 21:01:54;;;;;;;19.50;12.60;;;7.60;42.40;;;;;;6246172;23;20016;-76
2023/02/10 21:04:20;;;;;;;21.38;13.02;;;7.60;42.40;;;;;;6246644;23;19997;-77
2023/02/10 21:06:45;;;;;;;18.77;13.02;;;7.60;42.40;;;;;;6245918;23;20000;-76
2023/02/10 21:09:11;;;;;;;19.92;12.90;;;7.50;43.20;;;;;;6246292;23;20004;-76
2023/02/10 21:11:37;;;;;;;21.83;13.45;;;7.60;42.50;;;;;;6245885;23;20330;-76
2023/02/10 21:14:03;;;;;;;23.15;13.73;;;7.50;42.50;;;;;;6245872;23;20000;-77
2023/02/10 21:16:28;;;;;;;25.02;13.70;;;7.50;42.40;;;;;;6246759;23;20071;-74
2023/02/10 21:18:54;;;;;;;21.70;13.18;;;7.50;42.50;;;;;;6246296;23;20000;-74
2023/02/10 21:21:21;;;;;;;21.50;13.45;;;7.50;42.40;;;;;;6246351;23;20008;-77
2023/02/10 21:23:48;;;;;;;21.77;13.63;;;7.50;41.90;;;;;;6246722;23;20065;-75
2023/02/10 21:26:14;;;;;;;19.70;13.10;;;7.40;42.40;;;;;;6246904;23;20004;-75
2023/02/10 21:28:40;;;;;;;21.02;13.30;;;7.30;42.70;;;;;;6246508;23;20020;-80
2023/02/10 21:31:10;;;;;;;21.27;13.82;;;7.40;42.90;;;;;;6248024;23;20307;-82
2023/02/10 21:33:36;;;;;;;24.92;13.98;;;7.40;43.60;;;;;;6196539;23;20438;-82
2023/02/10 21:36:02;;;;;;;23.58;14.18;;;7.40;43.20;;;;;;6247466;23;20325;-82
2023/02/10 21:38:28;;;;;;;19.35;13.00;;;7.30;43.60;;;;;;6220017;23;20027;-82
2023/02/10 21:41:04;;;;;;;20.73;12.55;;;7.30;43.80;;;;;;6219662;23;20016;-78
2023/02/10 21:43:30;;;;;;;19.42;13.00;;;7.40;43.70;;;;;;6246356;23;20088;-76
2023/02/10 21:45:56;;;;;;;19.85;13.30;;;7.40;45.00;;;;;;6218681;23;20083;-77
2023/02/10 21:48:22;;;;;;;20.05;12.15;;;7.50;45.40;;;;;;6219241;23;20005;-77
2023/02/10 21:50:48;;;;;;;18.92;13.10;;;7.40;44.00;;;;;;6219106;23;20012;-74
2023/02/10 21:53:14;;;;;;;20.98;14.20;;;7.30;43.20;;;;;;6219259;23;20054;-76
2023/02/10 21:55:40;;;;;;;23.50;15.27;;;7.20;43.50;;;;;;6246129;23;20016;-76
2023/02/10 21:58:06;;;;;;;21.35;13.32;;;7.20;43.60;;;;;;6245535;23;20304;-77
2023/02/10 22:00:32;;;;;;;18.85;13.82;;;7.10;44.30;;;;;;6245611;23;20082;-76
2023/02/10 22:02:58;;;;;;;24.75;14.13;;;7.20;44.10;;;;;;6246154;23;20010;-76
2023/02/10 22:05:24;;;;;;;28.63;14.48;;;7.20;44.70;;;;;;6246177;23;20031;-74
2023/02/10 22:07:50;;;;;;;19.05;12.98;;;7.20;44.60;;;;;;6245994;23;20000;-74
2023/02/10 22:10:15;;;;;;;20.98;13.70;;;7.20;45.00;;;;;;6218240;23;20078;-76
2023/02/10 22:12:41;;;;;;;19.55;12.48;;;7.10;44.40;;;;;;6245457;23;20403;-75
2023/02/10 22:15:08;;;;;;;21.17;13.75;;;7.20;44.90;;;;;;6245959;23;20004;-74
2023/02/10 22:17:34;;;;;;;20.75;13.98;;;7.10;43.90;;;;;;6246812;23;20007;-77
2023/02/10 22:19:59;;;;;;;20.38;13.40;;;7.10;44.40;;;;;;6246119;23;19996;-75
2023/02/10 22:22:25;;;;;;;20.17;13.50;;;7.10;44.60;;;;;;6245864;23;20342;-79
2023/02/10 22:24:51;;;;;;;22.40;13.73;;;7.10;44.20;;;;;;6245687;23;20027;-74
2023/02/10 22:27:16;;;;;;;20.95;13.10;;;7.00;44.60;;;;;;6219116;23;20104;-76
2023/02/10 22:29:42;;;;;;;23.30;14.18;;;7.00;44.40;;;;;;6219167;23;20472;-75
2023/02/10 22:32:08;;;;;;;20.50;13.75;;;6.90;44.10;;;;;;6246299;23;20004;-76
2023/02/10 22:34:34;;;;;;;22.45;13.57;;;6.80;44.00;;;;;;6245457;23;20046;-78
2023/02/10 22:37:00;;;;;;;18.85;13.50;;;6.60;44.20;;;;;;6245842;23;20000;-75
2023/02/10 22:39:25;;;;;;;20.48;13.68;;;6.60;44.20;;;;;;6219514;23;20009;-77
2023/02/10 22:41:51;;;;;;;18.83;13.23;;;6.50;44.20;;;;;;6218002;23;20354;-77
2023/02/10 22:44:17;;;;;;;22.65;14.05;;;6.50;44.20;;;;;;6245413;23;20006;-78
2023/02/10 22:46:43;;;;;;;20.92;13.68;;;6.40;44.20;;;;;;6246157;23;20008;-78
2023/02/10 22:49:14;;;;;;;24.10;14.20;;;6.30;44.30;;;;;;6218388;23;20434;-78
2023/02/10 22:51:41;;;;;;;22.60;13.95;;;6.40;44.20;;;;;;6245391;23;20038;-76
2023/02/10 22:54:10;;;;;;;19.70;12.85;;;6.30;45.00;;;;;;6245262;23;20000;-77
2023/02/10 22:56:38;;;;;;;18.95;12.63;;;6.30;44.40;;;;;;6245383;23;20046;-76
2023/02/10 22:59:05;;;;;;;18.98;13.23;;;6.30;44.40;;;;;;6218384;23;20009;-75
2023/02/10 23:01:40;;;;;;;21.92;13.27;;;6.20;44.30;;;;;;6245096;23;20019;-77
2023/02/10 23:04:07;;;;;;;23.80;13.93;;;6.10;43.50;;;;;;6244951;23;20058;-78
2023/02/10 23:06:33;;;;;;;17.58;12.73;;;6.10;44.40;;;;;;6245670;23;20019;-78
2023/02/10 23:08:59;;;;;;;25.02;14.43;;;6.00;44.40;;;;;;6244759;23;20342;-76
2023/02/10 23:11:30;;;;;;;20.10;12.98;;;6.00;44.50;;;;;;6245269;23;20004;-76
